createdAt,value
2022-11-16T05:05:34.235Z,16.63
2022-11-16T05:08:34.028Z,16.10
2022-11-16T05:11:23.513Z,15.43
2022-11-16T05:13:55.278Z,14.30
2022-11-16T05:16:23.242Z,15.02
2022-11-16T05:19:10.534Z,15.07
2022-11-16T05:21:38.986Z,14.73
2022-11-16T05:24:25.266Z,13.85
2022-11-16T05:26:53.559Z,12.63
2022-11-16T05:29:20.962Z,13.05
2022-11-16T05:31:48.276Z,12.15
2022-11-16T05:34:15.947Z,12.05
2022-11-16T05:36:43.980Z,11.52
2022-11-16T05:39:12.685Z,11.30
2022-11-16T05:41:43.584Z,11.77
2022-11-16T05:44:12.326Z,11.20
2022-11-16T05:46:40.839Z,11.00
2022-11-16T05:49:09.799Z,11.02
2022-11-16T05:51:38.124Z,10.88
2022-11-16T05:54:06.079Z,11.02
2022-11-16T05:56:34.746Z,11.95
2022-11-16T05:59:02.302Z,11.32
2022-11-16T06:01:30.229Z,10.38
2022-11-16T06:04:01.985Z,11.38
2022-11-16T06:06:30.911Z,11.82
2022-11-16T06:08:58.715Z,11.70
2022-11-16T06:11:31.370Z,12.20
2022-11-16T06:14:02.250Z,12.68
2022-11-16T06:16:29.839Z,12.73
2022-11-16T06:18:59.466Z,12.95
2022-11-16T06:21:26.770Z,14.77
2022-11-16T06:23:54.802Z,13.77
2022-11-16T06:26:22.488Z,13.35
2022-11-16T06:28:50.962Z,13.90
2022-11-16T06:31:18.270Z,14.85
2022-11-16T06:33:46.685Z,14.77
2022-11-16T06:36:19.630Z,15.27
2022-11-16T06:38:47.318Z,16.70
2022-11-16T06:41:16.057Z,15.98
2022-11-16T06:43:48.323Z,16.33
2022-11-16T06:46:18.315Z,20.02
2022-11-16T06:48:45.769Z,19.65
2022-11-16T06:51:14.507Z,20.27
2022-11-16T06:53:42.034Z,58.78
2022-11-16T06:56:12.251Z,41.75
2022-11-16T06:58:44.238Z,26.60
2022-11-16T07:01:13.715Z,20.27
2022-11-16T07:03:43.993Z,17.77
2022-11-16T07:06:14.159Z,16.85
2022-11-16T07:08:44.512Z,18.13
2022-11-16T07:11:13.199Z,18.52
2022-11-16T07:13:40.523Z,17.25
2022-11-16T07:16:11.219Z,19.45
2022-11-16T07:18:43.366Z,19.15
2022-11-16T07:21:16.687Z,17.30
2022-11-16T07:23:45.547Z,17.27
2022-11-16T07:26:18.110Z,16.58
2022-11-16T07:28:51.265Z,17.70
2022-11-16T07:31:33.654Z,17.80
2022-11-16T07:34:32.176Z,18.15
2022-11-16T07:37:08.639Z,17.40
2022-11-16T07:39:36.001Z,16.48
2022-11-16T07:42:11.461Z,16.65
2022-11-16T07:45:12.001Z,17.33
2022-11-16T07:47:45.687Z,17.38
2022-11-16T07:50:21.956Z,17.35
2022-11-16T07:52:51.427Z,17.45
2022-11-16T07:55:25.038Z,18.83
2022-11-16T07:57:53.529Z,17.95
2022-11-16T08:00:22.598Z,19.15
2022-11-16T08:02:58.414Z,20.02
2022-11-16T08:05:26.527Z,22.35
2022-11-16T08:07:54.768Z,18.75
2022-11-16T08:10:25.276Z,20.48
2022-11-16T08:12:54.719Z,19.75
2022-11-16T08:15:25.099Z,20.02
2022-11-16T08:17:52.774Z,22.95
2022-11-16T08:20:20.234Z,21.17
2022-11-16T08:22:49.769Z,22.60
2022-11-16T08:25:17.194Z,20.80
2022-11-16T08:27:45.698Z,21.15
2022-11-16T08:30:13.545Z,22.20
2022-11-16T08:32:42.128Z,22.40
2022-11-16T08:35:10.526Z,21.17
2022-11-16T08:37:38.294Z,21.92
2022-11-16T08:40:25.689Z,22.05
2022-11-16T08:42:56.989Z,19.02
2022-11-16T08:45:24.537Z,19.52
2022-11-16T08:48:03.244Z,19.58
2022-11-16T08:50:44.107Z,20.70
2022-11-16T08:53:16.757Z,18.85
2022-11-16T08:55:44.811Z,20.20
2022-11-16T08:58:12.466Z,21.52
2022-11-16T09:00:40.762Z,23.00
2022-11-16T09:03:08.416Z,21.23
2022-11-16T09:05:36.120Z,19.20
2022-11-16T09:08:05.636Z,20.75
2022-11-16T09:10:33.017Z,19.00
2022-11-16T09:13:01.105Z,20.23
2022-11-16T09:15:28.435Z,20.00
2022-11-16T09:17:55.731Z,18.65
2022-11-16T09:20:23.018Z,19.17
2022-11-16T09:22:50.243Z,19.95
2022-11-16T09:25:19.048Z,19.98
2022-11-16T09:27:46.271Z,21.40
2022-11-16T09:30:14.816Z,18.92
2022-11-16T09:32:42.047Z,19.65
2022-11-16T09:35:09.721Z,19.27
2022-11-16T09:37:37.395Z,19.55
2022-11-16T09:40:05.333Z,19.43
2022-11-16T09:42:56.502Z,18.92
2022-11-16T09:45:43.147Z,19.63
2022-11-16T09:48:13.528Z,18.08
2022-11-16T09:50:50.722Z,19.42
2022-11-16T09:53:21.699Z,18.10
2022-11-16T09:55:53.364Z,18.88
2022-11-16T09:58:36.208Z,18.90
2022-11-16T10:01:13.005Z,18.48
2022-11-16T10:03:46.467Z,18.50
2022-11-16T10:06:22.595Z,17.85
2022-11-16T10:08:56.598Z,18.48
2022-11-16T10:11:33.462Z,19.25
2022-11-16T10:14:39.531Z,18.65
2022-11-16T10:17:32.586Z,21.77
2022-11-16T10:20:02.467Z,20.45
2022-11-16T10:22:51.621Z,20.98
2022-11-16T10:25:24.111Z,19.30
2022-11-16T10:28:29.339Z,19.05
2022-11-16T10:31:28.478Z,19.65
2022-11-16T10:33:58.918Z,18.40
2022-11-16T10:36:30.907Z,18.60
2022-11-16T10:39:00.383Z,18.23
2022-11-16T10:41:41.054Z,17.80
2022-11-16T10:44:19.456Z,18.15
2022-11-16T10:47:02.523Z,18.17
2022-11-16T10:49:42.974Z,17.33
2022-11-16T10:52:10.291Z,17.85
2022-11-16T10:54:57.592Z,18.15
2022-11-16T10:58:00.338Z,17.60
2022-11-16T11:00:40.873Z,17.00
2022-11-16T11:03:10.730Z,17.05
2022-11-16T11:05:48.048Z,16.92
2022-11-16T11:08:26.343Z,16.25
2022-11-16T11:11:24.817Z,14.35
2022-11-16T11:14:10.318Z,14.90
2022-11-16T11:16:38.049Z,15.15
2022-11-16T11:19:57.390Z,15.05
2022-11-16T11:22:26.146Z,15.65
2022-11-16T11:24:54.563Z,15.35
2022-11-16T11:27:27.082Z,15.68
2022-11-16T11:29:58.637Z,14.93
2022-11-16T11:32:33.985Z,15.68
2022-11-16T11:35:03.589Z,15.52
2022-11-16T11:37:34.840Z,15.75
2022-11-16T11:40:25.801Z,15.10
2022-11-16T11:42:59.053Z,15.63
2022-11-16T11:45:53.551Z,14.77
2022-11-16T11:48:43.050Z,14.80
2022-11-16T11:51:22.715Z,15.95
2022-11-16T11:53:54.239Z,15.70
2022-11-16T11:56:21.713Z,14.15
2022-11-16T11:58:49.822Z,14.38
2022-11-16T12:01:32.299Z,14.88
2022-11-16T12:04:32.470Z,14.68
2022-11-16T12:07:08.903Z,15.40
2022-11-16T12:09:43.884Z,16.15
2022-11-16T12:12:35.515Z,16.58
2022-11-16T12:15:22.757Z,14.60
2022-11-16T12:17:56.399Z,16.45
2022-11-16T12:21:04.668Z,16.92
2022-11-16T12:23:50.434Z,17.83
2022-11-16T12:26:44.959Z,17.30
2022-11-16T12:29:25.737Z,16.90
2022-11-16T12:32:31.563Z,16.77
2022-11-16T12:35:23.904Z,16.20
2022-11-16T12:37:57.090Z,17.08
2022-11-16T12:40:45.384Z,16.75
2022-11-16T12:43:23.203Z,17.20
2022-11-16T12:46:01.453Z,17.13
2022-11-16T12:48:38.063Z,18.38
2022-11-16T12:51:21.976Z,17.05
2022-11-16T12:54:08.043Z,16.90
2022-11-16T12:56:56.860Z,16.70
2022-11-16T12:59:36.288Z,18.02
2022-11-16T13:02:20.080Z,20.52
2022-11-16T13:04:55.150Z,21.58
2022-11-16T13:07:32.180Z,21.25
2022-11-16T13:10:09.648Z,19.60
2022-11-16T13:12:38.653Z,18.42
2022-11-16T13:15:19.097Z,17.67
2022-11-16T13:17:55.977Z,18.95
2022-11-16T13:20:54.899Z,20.20
2022-11-16T13:23:28.245Z,23.05
2022-11-16T13:26:19.347Z,18.00
2022-11-16T13:29:36.855Z,21.17
2022-11-16T13:32:29.312Z,20.70
2022-11-16T13:34:58.451Z,20.48
2022-11-16T13:37:38.799Z,18.42
2022-11-16T13:40:06.066Z,24.25
2022-11-16T13:42:57.754Z,21.67
2022-11-16T13:45:28.966Z,18.15
2022-11-16T13:47:59.098Z,20.90
2022-11-16T13:50:37.915Z,16.90
2022-11-16T13:56:06.103Z,19.30
2022-11-16T13:58:37.188Z,20.17
2022-11-16T14:01:10.530Z,18.80
2022-11-16T14:03:40.363Z,19.73
2022-11-16T14:06:13.655Z,19.35
2022-11-16T14:09:27.675Z,19.27
2022-11-16T14:12:18.116Z,19.02
2022-11-16T14:15:16.227Z,19.35
2022-11-16T14:17:57.085Z,20.40
2022-11-16T14:20:38.264Z,19.27
2022-11-16T14:23:31.664Z,17.88
2022-11-16T14:26:27.955Z,16.48
2022-11-16T14:29:20.515Z,17.05
2022-11-16T14:31:49.739Z,18.63
2022-11-16T14:34:32.611Z,18.70
2022-11-16T14:37:00.609Z,18.25
2022-11-16T14:39:43.396Z,18.38
2022-11-16T14:42:21.640Z,16.55
2022-11-16T14:44:50.501Z,18.30
2022-11-16T14:47:23.873Z,19.13
2022-11-16T14:49:52.167Z,17.17
2022-11-16T14:52:29.485Z,18.88
2022-11-16T14:55:02.312Z,17.75
2022-11-16T14:57:30.960Z,21.33
2022-11-16T15:00:17.923Z,19.20
2022-11-16T15:02:51.515Z,19.20
2022-11-16T15:05:22.225Z,16.95
2022-11-16T15:07:52.847Z,20.65
2022-11-16T15:10:24.493Z,21.15
2022-11-16T15:12:55.077Z,18.08
2022-11-16T15:15:26.627Z,17.45
2022-11-16T15:17:59.872Z,18.92
2022-11-16T15:20:29.678Z,16.25
2022-11-16T15:22:58.935Z,22.15
2022-11-16T15:25:35.736Z,20.85
2022-11-16T15:28:06.007Z,18.88
2022-11-16T15:30:37.423Z,17.38
2022-11-16T15:33:30.096Z,16.30
2022-11-16T15:35:58.706Z,16.38
2022-11-16T15:38:28.150Z,19.52
2022-11-16T15:41:00.313Z,17.83
2022-11-16T15:43:32.994Z,27.58
2022-11-16T15:46:02.563Z,40.30
2022-11-16T15:48:50.199Z,21.33
2022-11-16T15:51:23.096Z,16.35
2022-11-16T15:53:53.038Z,14.57
2022-11-16T15:56:30.419Z,16.27
2022-11-16T15:59:01.608Z,15.60
2022-11-16T16:01:30.500Z,18.70
2022-11-16T16:04:04.584Z,16.75
2022-11-16T16:06:51.374Z,14.90
2022-11-16T16:09:21.385Z,17.70
2022-11-16T16:11:48.973Z,19.52
2022-11-16T16:14:30.262Z,19.55
2022-11-16T16:16:59.631Z,21.73
2022-11-16T16:19:45.134Z,24.20
2022-11-16T16:22:16.027Z,24.60
2022-11-16T16:24:46.059Z,23.07
2022-11-16T16:27:22.955Z,16.40
2022-11-16T16:29:52.431Z,20.23
2022-11-16T16:32:24.366Z,23.10
2022-11-16T16:34:57.409Z,18.38
2022-11-16T16:37:30.247Z,16.83
2022-11-16T16:39:58.490Z,16.98
2022-11-16T16:42:26.211Z,16.50
2022-11-16T16:44:54.476Z,16.95
2022-11-16T16:47:21.691Z,22.08
2022-11-16T16:49:49.548Z,18.88
2022-11-16T16:52:18.103Z,16.88
2022-11-16T16:54:45.950Z,17.58
2022-11-16T16:57:17.787Z,20.48
2022-11-16T17:02:16.548Z,25.20
2022-11-16T17:04:46.388Z,21.45
2022-11-16T17:07:15.428Z,60.47
2022-11-16T17:09:43.317Z,66.60
2022-11-16T17:12:11.034Z,104.43
2022-11-16T17:14:38.376Z,48.53
2022-11-16T17:17:06.049Z,28.85
2022-11-16T17:19:33.846Z,21.75
2022-11-16T17:22:01.162Z,23.35
2022-11-16T17:24:28.547Z,21.45
2022-11-16T17:26:55.868Z,21.05
2022-11-16T17:29:23.510Z,21.70
2022-11-16T17:31:59.462Z,21.08
2022-11-16T17:34:47.060Z,20.60
2022-11-16T17:37:14.807Z,20.30
2022-11-16T17:39:50.258Z,22.80
2022-11-16T17:42:28.254Z,24.35
2022-11-16T17:45:00.640Z,22.48
2022-11-16T17:47:30.960Z,24.83
2022-11-16T17:49:58.831Z,23.73
2022-11-16T17:52:26.795Z,23.02
2022-11-16T17:54:54.140Z,20.50
2022-11-16T17:57:21.917Z,21.88
2022-11-16T17:59:49.675Z,23.92
2022-11-16T18:02:17.307Z,21.20
2022-11-16T18:04:50.770Z,23.50
2022-11-16T18:07:18.455Z,18.73
2022-11-16T18:09:46.203Z,19.75
2022-11-16T18:12:13.427Z,24.48
2022-11-16T18:14:42.501Z,25.95
2022-11-16T18:17:09.926Z,33.35
2022-11-16T18:19:37.151Z,48.45
2022-11-16T18:22:04.820Z,47.28
2022-11-16T18:24:32.844Z,38.38
2022-11-16T18:27:00.230Z,18.85
2022-11-16T18:29:27.510Z,17.60
2022-11-16T18:31:55.132Z,19.40
2022-11-16T18:34:24.566Z,22.48
2022-11-16T18:36:52.296Z,20.35
2022-11-16T18:39:19.631Z,20.30
2022-11-16T18:41:51.728Z,27.80
2022-11-16T18:44:22.072Z,18.77
2022-11-16T18:46:49.352Z,17.00
2022-11-16T18:49:17.143Z,18.95
2022-11-16T18:51:44.423Z,18.85
2022-11-16T18:54:11.685Z,18.30
2022-11-16T18:56:39.239Z,19.35
2022-11-16T18:59:06.863Z,17.42
2022-11-16T19:01:34.834Z,17.83
2022-11-16T19:04:03.190Z,17.00
2022-11-16T19:06:32.361Z,16.17
2022-11-16T19:09:00.267Z,15.05
2022-11-16T19:11:28.672Z,17.35
2022-11-16T19:14:00.449Z,16.48
2022-11-16T19:16:28.216Z,17.15
2022-11-16T19:18:55.707Z,18.75
2022-11-16T19:21:23.485Z,19.02
2022-11-16T19:23:56.275Z,18.60
2022-11-16T19:26:26.805Z,18.50
2022-11-16T19:28:56.403Z,19.02
2022-11-16T19:31:23.720Z,19.35
2022-11-16T19:34:02.299Z,20.23
2022-11-16T19:36:31.380Z,21.55
2022-11-16T19:42:20.417Z,23.65
2022-11-16T19:44:47.734Z,24.35
2022-11-16T19:47:14.955Z,24.67
2022-11-16T19:49:42.176Z,22.73
2022-11-16T19:52:09.827Z,27.17
2022-11-16T19:54:37.134Z,25.58
2022-11-16T19:57:04.441Z,22.38
2022-11-16T19:59:32.628Z,22.50
2022-11-16T20:02:00.031Z,31.42
2022-11-16T20:04:32.940Z,31.65
2022-11-16T20:07:00.542Z,29.80
2022-11-16T20:09:27.879Z,37.70
2022-11-16T20:11:56.635Z,40.17
2022-11-16T20:14:25.083Z,36.20
2022-11-16T20:16:53.154Z,38.33
2022-11-16T20:19:20.834Z,37.85
2022-11-16T20:21:48.769Z,35.92
2022-11-16T20:24:17.724Z,35.33
2022-11-16T20:26:47.988Z,33.63
2022-11-16T20:32:37.474Z,29.95
2022-11-16T20:35:05.056Z,32.08
2022-11-16T20:37:32.764Z,32.72
2022-11-16T20:40:00.435Z,32.63
2022-11-16T20:42:28.231Z,32.85
2022-11-16T20:44:55.692Z,31.58
2022-11-16T20:47:22.896Z,32.85
2022-11-16T20:49:50.159Z,27.42
2022-11-16T20:52:17.974Z,29.55
2022-11-16T20:54:45.426Z,36.75
2022-11-16T20:57:12.709Z,34.88
2022-11-16T20:59:40.181Z,30.48
2022-11-16T21:02:11.501Z,26.25
2022-11-16T21:04:38.887Z,22.05
2022-11-16T21:07:06.535Z,22.20
2022-11-16T21:09:54.329Z,23.33
2022-11-16T21:12:42.923Z,21.90
2022-11-16T21:15:11.094Z,21.95
2022-11-16T21:17:38.381Z,25.65
2022-11-16T21:20:28.508Z,27.60
2022-11-16T21:22:54.061Z,22.08
2022-11-16T21:25:21.462Z,19.17
2022-11-16T21:27:49.404Z,15.70
2022-11-16T21:30:17.162Z,17.88
2022-11-16T21:32:44.958Z,18.27
2022-11-16T21:35:12.775Z,18.63
2022-11-16T21:37:40.098Z,18.73
2022-11-16T21:40:08.127Z,19.17
2022-11-16T21:42:36.126Z,28.23
2022-11-16T21:45:03.911Z,24.08
2022-11-16T21:47:31.771Z,20.60
2022-11-16T21:50:30.095Z,20.02
2022-11-16T21:52:46.378Z,20.58
2022-11-16T21:55:14.160Z,21.02
2022-11-16T21:57:41.499Z,21.60
2022-11-16T22:00:09.435Z,26.65
2022-11-16T22:02:39.582Z,23.23
2022-11-16T22:05:26.221Z,27.90
2022-11-16T22:07:53.972Z,24.73
2022-11-16T22:10:21.680Z,23.48
2022-11-16T22:12:49.145Z,20.33
2022-11-16T22:15:16.471Z,20.60
2022-11-16T22:17:44.615Z,18.65
2022-11-16T22:20:11.894Z,21.90
2022-11-16T22:22:39.832Z,45.75
2022-11-16T22:25:07.699Z,35.05
2022-11-16T22:27:46.985Z,31.70
2022-11-16T22:30:22.863Z,32.42
2022-11-16T22:32:50.184Z,38.60
2022-11-16T22:35:17.374Z,33.67
2022-11-16T22:37:44.651Z,28.45
2022-11-16T22:40:17.568Z,33.13
2022-11-16T22:42:45.871Z,37.28
2022-11-16T22:45:33.093Z,40.47
2022-11-16T22:48:20.935Z,31.77
2022-11-16T22:50:48.972Z,29.95
2022-11-16T22:53:56.223Z,31.52
2022-11-16T22:56:24.415Z,30.45
2022-11-16T22:58:52.615Z,28.27
2022-11-16T23:01:20.955Z,27.83
2022-11-16T23:03:48.773Z,26.17
2022-11-16T23:06:16.726Z,22.17
2022-11-16T23:08:44.029Z,21.85
2022-11-16T23:11:38.078Z,22.55
2022-11-16T23:14:25.367Z,22.50
2022-11-16T23:16:52.714Z,18.73
2022-11-16T23:19:40.074Z,18.65
2022-11-16T23:22:30.607Z,17.20
2022-11-16T23:25:16.513Z,16.48
2022-11-16T23:28:13.119Z,15.93
2022-11-16T23:30:43.021Z,15.18
2022-11-16T23:33:11.100Z,14.43
2022-11-16T23:35:38.316Z,15.50
2022-11-16T23:38:07.186Z,15.70
2022-11-16T23:40:39.502Z,16.63
2022-11-16T23:43:28.934Z,17.23
2022-11-16T23:45:56.178Z,16.92
2022-11-16T23:48:23.479Z,16.48
2022-11-16T23:50:51.168Z,16.98
2022-11-16T23:53:18.801Z,16.75
2022-11-16T23:55:47.488Z,16.48
2022-11-16T23:58:14.936Z,21.65
